Airville, Pennsylvania
Current Conditions -  °F | °C
As of 4:53 PM on Monday 22 Dec 2014 (Local Time) from KLNS Reporting Station
Overcast Overcast  
Wind Chill: 33°   Ceiling: 2100
Heat Index: 37°   Visibility: 8mi
Dew Point: 31°   Wind: 5mph
Humidity: 79%   Direction: 60°ENE
Pressure: 30.16"   Gusts: NA
Location:  39.83°N, 76.41°W
Report Text: KLNS 222153Z 06004KT 8SM OVC021 03/M01 A3016 RMK AO2 SLP218 T00281006
Loading
Personal Weather Stations






























Interactive Weather Map New forecast layout! Learn more

10-Day Weather Forecast

Advertisements
Track Severe Weather on mobile